Time;durP1;ratioP1;P1;durP2;ratioP2;P2;SDS_P1;SDS_P2;PMS_P1;PMS_P2;Temp;Humidity;BMP_temperature;BMP_pressure;BME280_temperature;BME280_humidity;BME280_pressure;Samples;Min_cycle;Max_cycle;Signal;HPM_P1;HPM_P2
2021/09/03 00:01:27;;;;;;;5.32;4.25;;;;;;;;;;4900416;29;20199;-85
2021/09/03 00:03:55;;;;;;;5.80;5.30;;;;;;;;;;4899755;29;20183;-84
2021/09/03 00:06:25;;;;;;;5.20;4.68;;;;;;;;;;4888714;29;20718;-85
2021/09/03 00:08:52;;;;;;;5.95;5.45;;;;;;;;;;4880487;29;20207;-86
2021/09/03 00:11:20;;;;;;;7.18;6.47;;;;;;;;;;4880512;29;20199;-85
2021/09/03 00:13:47;;;;;;;6.25;5.65;;;;;;;;;;4880653;29;20203;-85
2021/09/03 00:16:18;;;;;;;7.97;7.18;;;;;;;;;;4880236;29;20748;-85
2021/09/03 00:18:46;;;;;;;6.78;6.07;;;;;;;;;;4880654;29;20256;-85
2021/09/03 00:21:14;;;;;;;9.63;7.88;;;;;;;;;;4880553;29;20237;-84
2021/09/03 00:23:43;;;;;;;7.85;5.80;;;;;;;;;;4881035;29;20207;-85
2021/09/03 00:26:10;;;;;;;7.00;6.30;;;;;;;;;;4879776;29;20675;-85
2021/09/03 00:28:37;;;;;;;7.32;6.03;;;;;;;;;;4881138;29;20200;-86
2021/09/03 00:31:05;;;;;;;7.03;6.13;;;;;;;;;;4880296;29;20214;-85
2021/09/03 00:33:32;;;;;;;8.60;6.88;;;;;;;;;;4880192;29;20208;-85
2021/09/03 00:36:00;;;;;;;6.03;5.43;;;;;;;;;;4877963;29;20223;-85
2021/09/03 00:38:27;;;;;;;8.65;6.90;;;;;;;;;;4881705;29;20203;-85
2021/09/03 00:40:56;;;;;;;7.75;7.00;;;;;;;;;;4882040;29;20219;-85
2021/09/03 00:43:23;;;;;;;6.97;6.28;;;;;;;;;;4882080;29;20226;-85
2021/09/03 00:45:51;;;;;;;7.15;6.43;;;;;;;;;;4881773;29;20235;-85
2021/09/03 00:48:18;;;;;;;7.57;6.80;;;;;;;;;;4882359;29;20216;-85
2021/09/03 00:50:48;;;;;;;8.40;7.57;;;;;;;;;;4882262;29;20584;-85
2021/09/03 00:53:16;;;;;;;8.13;7.10;;;;;;;;;;4882459;29;20208;-85
2021/09/03 00:55:44;;;;;;;7.22;6.55;;;;;;;;;;4881618;29;20223;-86
2021/09/03 00:58:13;;;;;;;7.22;6.60;;;;;;;;;;4881789;29;20184;-86
2021/09/03 01:00:42;;;;;;;9.00;7.40;;;;;;;;;;4882507;29;20207;-85
2021/09/03 01:03:10;;;;;;;7.80;7.05;;;;;;;;;;4881686;29;20192;-85
2021/09/03 01:05:37;;;;;;;9.80;7.80;;;;;;;;;;4881877;29;20795;-85
2021/09/03 01:08:05;;;;;;;8.35;7.53;;;;;;;;;;4881698;29;20232;-85
2021/09/03 01:10:35;;;;;;;9.88;8.88;;;;;;;;;;4882361;29;20203;-85
2021/09/03 01:13:03;;;;;;;8.45;7.22;;;;;;;;;;4881814;29;20200;-85
2021/09/03 01:15:32;;;;;;;8.65;7.75;;;;;;;;;;4881476;29;20234;-85
2021/09/03 01:18:01;;;;;;;10.65;7.55;;;;;;;;;;4881850;29;20212;-85
2021/09/03 01:20:29;;;;;;;8.40;7.60;;;;;;;;;;4881758;29;20200;-85
2021/09/03 01:22:58;;;;;;;8.57;7.65;;;;;;;;;;4881926;29;20196;-85
2021/09/03 01:25:27;;;;;;;9.02;7.63;;;;;;;;;;4882201;29;20246;-85
2021/09/03 01:27:54;;;;;;;8.27;7.47;;;;;;;;;;4881712;29;20639;-85
2021/09/03 01:30:23;;;;;;;8.27;7.18;;;;;;;;;;4881542;29;20206;-85
2021/09/03 01:32:50;;;;;;;9.25;8.23;;;;;;;;;;4881644;29;20184;-85
2021/09/03 01:35:18;;;;;;;8.95;7.30;;;;;;;;;;4881170;29;20734;-85
2021/09/03 01:37:47;;;;;;;8.60;7.22;;;;;;;;;;4881594;29;20198;-84
2021/09/03 01:40:16;;;;;;;8.48;7.28;;;;;;;;;;4881468;29;20207;-85
2021/09/03 01:42:45;;;;;;;8.50;7.25;;;;;;;;;;4881103;29;20222;-85
2021/09/03 01:45:13;;;;;;;8.65;7.68;;;;;;;;;;4881659;29;20188;-85
2021/09/03 01:47:41;;;;;;;9.52;8.27;;;;;;;;;;4881216;29;20216;-85
2021/09/03 01:50:10;;;;;;;7.90;7.10;;;;;;;;;;4881294;29;20215;-85
2021/09/03 01:52:38;;;;;;;10.45;7.50;;;;;;;;;;4881209;29;20666;-85
2021/09/03 01:55:08;;;;;;;7.72;6.97;;;;;;;;;;4881750;29;20286;-85
2021/09/03 01:57:37;;;;;;;8.00;6.97;;;;;;;;;;4881345;29;20200;-85
2021/09/03 02:00:06;;;;;;;8.73;6.72;;;;;;;;;;4881313;29;20619;-85
2021/09/03 02:02:34;;;;;;;9.30;7.03;;;;;;;;;;4881046;29;20290;-85
2021/09/03 02:05:02;;;;;;;6.82;6.15;;;;;;;;;;4880910;29;20201;-85
2021/09/03 02:07:30;;;;;;;9.02;7.32;;;;;;;;;;4899581;29;20273;-85
2021/09/03 02:09:57;;;;;;;6.82;6.03;;;;;;;;;;4899479;29;20301;-84
2021/09/03 02:12:25;;;;;;;9.00;7.60;;;;;;;;;;4899842;29;20711;-84
2021/09/03 02:14:53;;;;;;;7.35;6.63;;;;;;;;;;4899738;29;20191;-85
2021/09/03 02:17:21;;;;;;;6.90;6.30;;;;;;;;;;4899803;29;20219;-85
2021/09/03 02:19:49;;;;;;;7.10;6.25;;;;;;;;;;4899684;29;20245;-85
2021/09/03 02:22:18;;;;;;;8.55;7.18;;;;;;;;;;4899869;29;20682;-85
2021/09/03 02:24:45;;;;;;;6.43;5.80;;;;;;;;;;4900082;29;20207;-85
2021/09/03 02:27:13;;;;;;;9.00;6.47;;;;;;;;;;4899622;29;20309;-85
2021/09/03 02:29:40;;;;;;;6.30;5.55;;;;;;;;;;4898991;29;20214;-86
2021/09/03 02:32:10;;;;;;;6.28;5.47;;;;;;;;;;4899400;29;20195;-85
2021/09/03 02:34:37;;;;;;;6.35;5.72;;;;;;;;;;4900117;29;20658;-85
2021/09/03 02:37:05;;;;;;;6.15;5.50;;;;;;;;;;4900082;29;20223;-85
2021/09/03 02:39:33;;;;;;;5.72;5.18;;;;;;;;;;4899106;29;20570;-85
2021/09/03 02:42:00;;;;;;;5.20;4.60;;;;;;;;;;4899758;29;20219;-84
2021/09/03 02:44:27;;;;;;;6.60;6.00;;;;;;;;;;4899313;29;20195;-85
2021/09/03 02:46:55;;;;;;;6.07;4.65;;;;;;;;;;4899025;29;20220;-85
2021/09/03 02:49:24;;;;;;;5.78;4.88;;;;;;;;;;4899873;29;20207;-85
2021/09/03 02:51:51;;;;;;;4.82;4.38;;;;;;;;;;4899462;29;20213;-85
2021/09/03 02:54:19;;;;;;;5.40;4.90;;;;;;;;;;4898457;29;20214;-86
2021/09/03 02:56:46;;;;;;;4.95;4.55;;;;;;;;;;4899566;29;20238;-85
2021/09/03 02:59:15;;;;;;;4.60;4.20;;;;;;;;;;4899085;29;20211;-86
2021/09/03 03:01:42;;;;;;;5.53;5.03;;;;;;;;;;4902230;29;20660;-85
2021/09/03 03:04:10;;;;;;;6.57;5.43;;;;;;;;;;4902725;29;20206;-85
2021/09/03 03:06:38;;;;;;;7.45;4.90;;;;;;;;;;4902447;29;20230;-86
2021/09/03 03:09:06;;;;;;;6.03;5.25;;;;;;;;;;4902056;29;20226;-85
2021/09/03 03:11:34;;;;;;;5.60;5.05;;;;;;;;;;4902396;29;20180;-84
2021/09/03 03:14:04;;;;;;;8.50;5.72;;;;;;;;;;4902739;29;20274;-85
2021/09/03 03:16:32;;;;;;;6.82;6.18;;;;;;;;;;4902735;29;20219;-84
2021/09/03 03:19:01;;;;;;;5.63;5.13;;;;;;;;;;4902635;29;20646;-84
2021/09/03 03:21:28;;;;;;;6.25;5.47;;;;;;;;;;4902522;29;20227;-84
2021/09/03 03:23:59;;;;;;;7.88;6.18;;;;;;;;;;4902625;29;20218;-85
2021/09/03 03:26:28;;;;;;;5.35;4.85;;;;;;;;;;4902743;29;20223;-85
2021/09/03 03:28:55;;;;;;;4.63;4.18;;;;;;;;;;4902840;29;20214;-84
2021/09/03 03:31:23;;;;;;;5.03;4.35;;;;;;;;;;4902010;29;20186;-85
2021/09/03 03:33:50;;;;;;;5.72;4.85;;;;;;;;;;4902322;29;20682;-85
2021/09/03 03:36:17;;;;;;;5.30;4.60;;;;;;;;;;4901992;29;20223;-85
2021/09/03 03:38:45;;;;;;;6.00;5.43;;;;;;;;;;4901966;29;20187;-85
2021/09/03 03:41:15;;;;;;;5.18;4.63;;;;;;;;;;4902276;29;20198;-85
2021/09/03 03:43:42;;;;;;;5.63;5.03;;;;;;;;;;4902276;29;20275;-85
2021/09/03 03:46:11;;;;;;;5.25;4.78;;;;;;;;;;4901671;29;20253;-87
2021/09/03 03:48:39;;;;;;;5.45;4.95;;;;;;;;;;4901604;29;20623;-85
2021/09/03 03:51:07;;;;;;;5.65;5.15;;;;;;;;;;4902178;29;20286;-84
2021/09/03 03:53:35;;;;;;;6.13;4.95;;;;;;;;;;4902080;29;20191;-86
2021/09/03 03:56:05;;;;;;;5.55;4.95;;;;;;;;;;4901584;29;20229;-85
2021/09/03 03:58:34;;;;;;;6.55;4.95;;;;;;;;;;4902214;29;20562;-84
2021/09/03 04:01:02;;;;;;;5.85;4.53;;;;;;;;;;4901823;29;20187;-85
2021/09/03 04:03:32;;;;;;;5.18;4.68;;;;;;;;;;4901637;29;20191;-84
2021/09/03 04:06:00;;;;;;;5.72;5.22;;;;;;;;;;4901119;29;20811;-85
2021/09/03 04:08:29;;;;;;;5.60;4.80;;;;;;;;;;4901309;29;20612;-84
2021/09/03 04:10:58;;;;;;;5.70;4.53;;;;;;;;;;4900233;29;20642;-85
2021/09/03 04:13:26;;;;;;;4.95;4.53;;;;;;;;;;4901573;29;20202;-85
2021/09/03 04:15:56;;;;;;;4.47;3.60;;;;;;;;;;4901130;29;20725;-85
2021/09/03 04:18:24;;;;;;;4.50;3.92;;;;;;;;;;4901404;29;20229;-84
2021/09/03 04:20:51;;;;;;;4.15;3.75;;;;;;;;;;4900704;29;20203;-84
2021/09/03 04:23:19;;;;;;;4.97;4.47;;;;;;;;;;4901327;29;20199;-84
2021/09/03 04:25:46;;;;;;;4.50;4.10;;;;;;;;;;4901676;29;20230;-85
2021/09/03 04:28:15;;;;;;;3.95;3.65;;;;;;;;;;4901271;29;20210;-84
2021/09/03 04:30:43;;;;;;;3.85;2.90;;;;;;;;;;4901431;29;20194;-85
2021/09/03 04:33:12;;;;;;;4.25;3.83;;;;;;;;;;4901429;29;20207;-84
2021/09/03 04:35:39;;;;;;;3.97;3.58;;;;;;;;;;4900989;29;20237;-85
2021/09/03 04:38:08;;;;;;;4.40;4.00;;;;;;;;;;4901651;29;20196;-84
2021/09/03 04:40:35;;;;;;;4.13;3.72;;;;;;;;;;4900739;29;20187;-85
2021/09/03 04:43:04;;;;;;;3.67;3.38;;;;;;;;;;4901451;29;20273;-84
2021/09/03 04:45:31;;;;;;;3.08;2.78;;;;;;;;;;4901211;29;20227;-85
2021/09/03 04:48:02;;;;;;;3.17;2.88;;;;;;;;;;4901261;29;20277;-85
2021/09/03 04:50:32;;;;;;;2.67;2.47;;;;;;;;;;4900917;29;20211;-85
2021/09/03 04:52:59;;;;;;;2.45;2.25;;;;;;;;;;4900824;29;20646;-85
2021/09/03 04:55:28;;;;;;;2.15;2.03;;;;;;;;;;4901050;29;20230;-85
2021/09/03 04:57:56;;;;;;;2.72;2.45;;;;;;;;;;4901349;29;20184;-85
2021/09/03 05:00:25;;;;;;;3.03;2.83;;;;;;;;;;4901170;29;20191;-85
2021/09/03 05:02:52;;;;;;;2.30;2.20;;;;;;;;;;4900654;29;20195;-85
2021/09/03 05:05:23;;;;;;;2.95;2.75;;;;;;;;;;4900508;29;20231;-85
2021/09/03 05:07:52;;;;;;;2.65;2.45;;;;;;;;;;4900797;29;20214;-85
2021/09/03 05:10:19;;;;;;;2.42;2.22;;;;;;;;;;4901495;29;20215;-85
2021/09/03 05:12:47;;;;;;;2.80;2.60;;;;;;;;;;4901200;29;20218;-85
2021/09/03 05:15:16;;;;;;;4.07;3.70;;;;;;;;;;4901824;29;20194;-84
2021/09/03 05:17:48;;;;;;;3.40;3.10;;;;;;;;;;4901763;29;20184;-85
2021/09/03 05:20:16;;;;;;;3.15;2.67;;;;;;;;;;4902160;29;20187;-86
2021/09/03 05:22:43;;;;;;;3.20;3.00;;;;;;;;;;4901499;29;20187;-85
2021/09/03 05:25:14;;;;;;;2.17;2.08;;;;;;;;;;4902300;29;20195;-85
2021/09/03 05:27:42;;;;;;;2.33;2.20;;;;;;;;;;4901537;29;20660;-84
2021/09/03 05:30:11;;;;;;;2.08;1.98;;;;;;;;;;4900805;29;20713;-85
2021/09/03 05:32:39;;;;;;;2.58;2.38;;;;;;;;;;4902033;29;20206;-86
2021/09/03 05:35:08;;;;;;;1.73;1.63;;;;;;;;;;4901291;29;20198;-85
2021/09/03 05:37:35;;;;;;;3.72;3.50;;;;;;;;;;4901821;29;20194;-86
2021/09/03 05:40:04;;;;;;;3.03;2.72;;;;;;;;;;4901732;29;20645;-84
2021/09/03 05:42:33;;;;;;;2.30;2.15;;;;;;;;;;4901639;29;20214;-85
2021/09/03 05:45:01;;;;;;;1.73;1.63;;;;;;;;;;4901789;29;20202;-85
2021/09/03 05:47:28;;;;;;;3.03;2.83;;;;;;;;;;4901236;29;20681;-86
2021/09/03 05:49:56;;;;;;;2.70;2.50;;;;;;;;;;4898108;29;20240;-86
2021/09/03 05:52:24;;;;;;;2.65;2.38;;;;;;;;;;4887119;29;20637;-86
2021/09/03 05:54:52;;;;;;;2.00;1.90;;;;;;;;;;4900883;29;20232;-85
2021/09/03 05:57:19;;;;;;;2.30;2.10;;;;;;;;;;4887654;29;20223;-85
2021/09/03 05:59:49;;;;;;;1.75;1.65;;;;;;;;;;4882310;29;20194;-86
2021/09/03 06:02:23;;;;;;;1.60;1.50;;;;;;;;;;4882189;29;20196;-84
2021/09/03 06:04:51;;;;;;;1.90;1.80;;;;;;;;;;4883202;29;20188;-85
2021/09/03 06:07:18;;;;;;;2.03;1.92;;;;;;;;;;4880254;29;20239;-83
2021/09/03 06:09:46;;;;;;;3.35;3.05;;;;;;;;;;4881414;29;20228;-84
2021/09/03 06:12:13;;;;;;;2.20;2.00;;;;;;;;;;4880053;29;20212;-84
2021/09/03 06:14:41;;;;;;;2.00;1.90;;;;;;;;;;4861568;29;20208;-85
2021/09/03 06:17:10;;;;;;;1.58;1.48;;;;;;;;;;4861051;29;20231;-84
2021/09/03 06:19:38;;;;;;;2.80;2.60;;;;;;;;;;4862463;29;20213;-83
2021/09/03 06:22:05;;;;;;;2.55;2.35;;;;;;;;;;4862480;29;20200;-85
2021/09/03 06:24:35;;;;;;;2.33;2.10;;;;;;;;;;4888036;29;20195;-83
2021/09/03 06:27:05;;;;;;;2.08;1.98;;;;;;;;;;4898786;29;20238;-83
2021/09/03 06:29:40;;;;;;;2.70;2.50;;;;;;;;;;4896295;29;20196;-85
2021/09/03 06:32:11;;;;;;;3.13;2.83;;;;;;;;;;4880267;29;20191;-85
2021/09/03 06:34:41;;;;;;;3.42;3.13;;;;;;;;;;4879844;29;20232;-84
2021/09/03 06:37:09;;;;;;;4.70;4.30;;;;;;;;;;4883378;29;20223;-84
2021/09/03 06:39:38;;;;;;;3.78;3.47;;;;;;;;;;4883751;29;20196;-85
2021/09/03 06:42:07;;;;;;;3.22;3.03;;;;;;;;;;4865562;29;20675;-84
2021/09/03 06:44:35;;;;;;;2.63;2.42;;;;;;;;;;4870274;29;20200;-85
2021/09/03 06:47:04;;;;;;;2.90;2.70;;;;;;;;;;4884172;29;20223;-84
2021/09/03 06:49:33;;;;;;;3.28;3.08;;;;;;;;;;4884406;29;20583;-84
2021/09/03 06:52:01;;;;;;;3.42;3.13;;;;;;;;;;4884087;29;20215;-84
2021/09/03 06:54:29;;;;;;;2.30;2.20;;;;;;;;;;4883852;29;20184;-84
2021/09/03 06:57:04;;;;;;;2.75;2.55;;;;;;;;;;4884508;29;20224;-85
2021/09/03 06:59:32;;;;;;;2.88;2.60;;;;;;;;;;4868554;29;20670;-84
2021/09/03 07:02:00;;;;;;;4.35;3.95;;;;;;;;;;4884389;29;20210;-84
2021/09/03 07:21:35;;;;;;;2.75;2.55;;;;;;;;;;4826959;29;20692;-84
2021/09/03 07:24:05;;;;;;;4.20;3.80;;;;;;;;;;4828321;29;20194;-85
2021/09/03 07:26:33;;;;;;;4.05;2.70;;;;;;;;;;4902509;29;20222;-85
2021/09/03 07:29:02;;;;;;;2.85;2.65;;;;;;;;;;4902202;29;20191;-85
2021/09/03 07:31:41;;;;;;;2.90;2.70;;;;;;;;;;4901358;29;20199;-85
2021/09/03 07:48:59;;;;;;;3.13;2.92;;;;;;;;;;4881366;29;20203;-85
2021/09/03 07:51:29;;;;;;;2.80;2.60;;;;;;;;;;4881850;29;20234;-85
2021/09/03 07:53:57;;;;;;;3.42;2.97;;;;;;;;;;4882272;29;20248;-85
2021/09/03 07:56:24;;;;;;;4.40;3.40;;;;;;;;;;4882267;29;20240;-85
2021/09/03 07:58:52;;;;;;;3.38;3.17;;;;;;;;;;4881813;29;20194;-85
2021/09/03 08:01:19;;;;;;;3.90;3.60;;;;;;;;;;4882080;29;20184;-85
2021/09/03 08:03:47;;;;;;;4.70;4.30;;;;;;;;;;4881088;29;20294;-85
2021/09/03 08:06:16;;;;;;;4.30;3.90;;;;;;;;;;4881590;29;20662;-84
2021/09/03 08:08:43;;;;;;;4.68;4.28;;;;;;;;;;4881228;29;20192;-84
2021/09/03 08:11:11;;;;;;;3.60;3.30;;;;;;;;;;4880949;29;20241;-85
2021/09/03 08:13:38;;;;;;;3.75;3.45;;;;;;;;;;4880830;29;20208;-84
2021/09/03 08:16:06;;;;;;;3.78;3.47;;;;;;;;;;4881835;29;20567;-85
2021/09/03 08:18:33;;;;;;;5.15;4.68;;;;;;;;;;4882136;29;20203;-85
2021/09/03 08:21:01;;;;;;;4.53;4.20;;;;;;;;;;4881774;29;20204;-85
2021/09/03 08:23:33;;;;;;;6.28;5.68;;;;;;;;;;4881838;29;20227;-85
2021/09/03 08:26:01;;;;;;;4.80;4.40;;;;;;;;;;4881645;29;20259;-85
2021/09/03 08:28:28;;;;;;;3.92;3.60;;;;;;;;;;4881432;29;20200;-85
2021/09/03 08:30:57;;;;;;;6.70;6.00;;;;;;;;;;4881469;29;20675;-86
2021/09/03 08:33:24;;;;;;;4.20;3.80;;;;;;;;;;4880271;29;20203;-86
2021/09/03 08:35:52;;;;;;;7.07;6.38;;;;;;;;;;4881940;29;20235;-86
2021/09/03 08:38:19;;;;;;;4.55;4.15;;;;;;;;;;4879880;29;20200;-86
2021/09/03 08:40:49;;;;;;;5.28;4.78;;;;;;;;;;4880433;29;20212;-84
2021/09/03 08:43:20;;;;;;;7.35;5.63;;;;;;;;;;4880440;29;20241;-85
2021/09/03 08:45:48;;;;;;;8.93;6.38;;;;;;;;;;4880431;29;20305;-86
2021/09/03 08:48:20;;;;;;;8.68;6.75;;;;;;;;;;4880771;29;20188;-85
2021/09/03 08:50:47;;;;;;;8.20;5.75;;;;;;;;;;4880696;29;20699;-86
2021/09/03 08:53:17;;;;;;;6.15;5.03;;;;;;;;;;4880789;29;20275;-86
2021/09/03 08:55:48;;;;;;;7.45;6.38;;;;;;;;;;4880766;29;20264;-85
2021/09/03 08:58:16;;;;;;;6.75;6.05;;;;;;;;;;4888798;29;20286;-86
2021/09/03 09:00:44;;;;;;;5.57;5.07;;;;;;;;;;4898998;29;20191;-86
2021/09/03 09:03:14;;;;;;;4.80;4.18;;;;;;;;;;4899636;29;20636;-85
2021/09/03 09:05:55;;;;;;;5.57;5.07;;;;;;;;;;4898567;29;20760;-86
2021/09/03 09:08:25;;;;;;;6.15;5.18;;;;;;;;;;4886043;29;20244;-86
2021/09/03 09:10:57;;;;;;;9.88;8.02;;;;;;;;;;4880282;29;20184;-86
2021/09/03 09:13:28;;;;;;;8.40;7.50;;;;;;;;;;4880881;29;20196;-85
2021/09/03 09:16:09;;;;;;;8.40;7.63;;;;;;;;;;4886215;29;20228;-85
2021/09/03 09:18:40;;;;;;;6.78;6.15;;;;;;;;;;4881634;29;20199;-86
2021/09/03 09:21:17;;;;;;;6.72;5.80;;;;;;;;;;4880608;29;20192;-86
2021/09/03 09:23:47;;;;;;;7.90;6.90;;;;;;;;;;4897522;29;20325;-85
2021/09/03 09:27:13;;;;;;;7.93;7.13;;;;;;;;;;4898485;29;20233;-87
2021/09/03 09:29:52;;;;;;;7.75;7.05;;;;;;;;;;4898459;29;20289;-87
2021/09/03 09:32:20;;;;;;;7.22;6.63;;;;;;;;;;4897872;29;20214;-87
2021/09/03 09:34:50;;;;;;;6.28;5.70;;;;;;;;;;4897999;29;20198;-87
2021/09/03 09:37:19;;;;;;;6.68;5.63;;;;;;;;;;4897885;29;20231;-87
2021/09/03 09:39:50;;;;;;;6.60;6.00;;;;;;;;;;4898185;29;20267;-86
2021/09/03 09:42:24;;;;;;;5.45;4.95;;;;;;;;;;4898209;29;20187;-86
2021/09/03 09:45:04;;;;;;;4.60;4.20;;;;;;;;;;4898278;29;20207;-85
2021/09/03 09:47:32;;;;;;;5.20;4.70;;;;;;;;;;4897860;29;20183;-86
2021/09/03 09:49:59;;;;;;;5.03;4.63;;;;;;;;;;4897445;29;20213;-87
2021/09/03 09:52:37;;;;;;;4.88;4.47;;;;;;;;;;4898457;29;20215;-86
2021/09/03 09:55:05;;;;;;;5.10;4.68;;;;;;;;;;4898283;29;20655;-85
2021/09/03 09:57:36;;;;;;;4.90;4.50;;;;;;;;;;4897689;29;20207;-87
2021/09/03 10:00:06;;;;;;;5.88;5.30;;;;;;;;;;4898056;29;20388;-87
2021/09/03 10:02:35;;;;;;;7.15;6.22;;;;;;;;;;4898304;29;20192;-86
2021/09/03 10:05:03;;;;;;;6.80;6.10;;;;;;;;;;4897717;29;20191;-86
2021/09/03 10:07:32;;;;;;;4.63;4.30;;;;;;;;;;4897251;29;20682;-86
2021/09/03 10:09:59;;;;;;;5.30;4.90;;;;;;;;;;4898635;29;20508;-87
2021/09/03 10:12:27;;;;;;;5.68;5.18;;;;;;;;;;4887619;29;20222;-84
2021/09/03 10:14:56;;;;;;;6.28;5.68;;;;;;;;;;4886403;29;20196;-84
2021/09/03 10:17:23;;;;;;;6.93;6.32;;;;;;;;;;4902732;29;20223;-85
2021/09/03 10:19:52;;;;;;;7.05;6.35;;;;;;;;;;4903364;29;20211;-84
2021/09/03 10:22:21;;;;;;;6.00;5.50;;;;;;;;;;4898488;29;20231;-84
2021/09/03 10:25:03;;;;;;;5.82;5.32;;;;;;;;;;4884583;29;20719;-84
2021/09/03 10:27:31;;;;;;;5.22;4.72;;;;;;;;;;4884256;29;20635;-84
2021/09/03 10:30:14;;;;;;;4.82;4.43;;;;;;;;;;4883297;29;20570;-83
2021/09/03 10:32:42;;;;;;;6.13;5.63;;;;;;;;;;4894381;29;20653;-84
2021/09/03 10:35:17;;;;;;;5.07;4.68;;;;;;;;;;4903318;29;20183;-85
2021/09/03 10:37:44;;;;;;;4.80;4.40;;;;;;;;;;4902700;29;20206;-85
2021/09/03 10:40:23;;;;;;;4.90;4.50;;;;;;;;;;4900151;29;20222;-85
2021/09/03 10:42:57;;;;;;;5.35;4.85;;;;;;;;;;4901192;29;20568;-85
2021/09/03 10:45:43;;;;;;;11.15;6.22;;;;;;;;;;4903213;29;20249;-85
2021/09/03 10:48:14;;;;;;;6.22;5.70;;;;;;;;;;4913529;29;20210;-85
2021/09/03 10:50:51;;;;;;;4.30;4.00;;;;;;;;;;4902122;29;20218;-84
2021/09/03 10:53:27;;;;;;;4.85;4.45;;;;;;;;;;4912333;29;20206;-85
2021/09/03 10:56:20;;;;;;;5.35;4.95;;;;;;;;;;4920406;29;20225;-85
2021/09/03 10:58:56;;;;;;;4.18;3.83;;;;;;;;;;4915719;29;20289;-85
2021/09/03 11:01:53;;;;;;;4.10;3.80;;;;;;;;;;4920420;29;20191;-85
2021/09/03 11:04:23;;;;;;;5.22;4.75;;;;;;;;;;4871053;29;20557;-85
2021/09/03 11:07:11;;;;;;;5.15;4.75;;;;;;;;;;4888913;29;20681;-84
2021/09/03 11:09:42;;;;;;;5.82;5.43;;;;;;;;;;4883944;29;20286;-84
2021/09/03 11:12:12;;;;;;;5.65;5.15;;;;;;;;;;4912337;29;20656;-85
2021/09/03 11:14:41;;;;;;;5.90;5.40;;;;;;;;;;4919476;29;20198;-85
2021/09/03 11:17:12;;;;;;;4.93;4.28;;;;;;;;;;4921154;29;20236;-84
2021/09/03 11:19:41;;;;;;;4.93;4.35;;;;;;;;;;4918753;29;20240;-86
2021/09/03 11:22:11;;;;;;;4.00;3.70;;;;;;;;;;4901905;29;20238;-85
2021/09/03 11:24:41;;;;;;;4.60;4.20;;;;;;;;;;4920864;29;20206;-84
2021/09/03 11:27:10;;;;;;;4.80;4.38;;;;;;;;;;4922142;29;20226;-85
2021/09/03 11:29:45;;;;;;;6.43;5.78;;;;;;;;;;4919527;29;20209;-85
2021/09/03 11:32:17;;;;;;;4.90;4.43;;;;;;;;;;4903051;29;20226;-85
2021/09/03 11:34:55;;;;;;;4.40;4.07;;;;;;;;;;4903415;29;20188;-83
2021/09/03 11:37:35;;;;;;;6.05;5.55;;;;;;;;;;4903006;29;20223;-83
2021/09/03 11:40:14;;;;;;;5.18;4.68;;;;;;;;;;4905341;29;20199;-83
2021/09/03 11:42:44;;;;;;;5.38;4.97;;;;;;;;;;4901645;29;20211;-84
2021/09/03 11:45:16;;;;;;;5.60;5.20;;;;;;;;;;4902807;29;20197;-83
2021/09/03 11:47:52;;;;;;;6.07;5.55;;;;;;;;;;4902679;29;20295;-83
2021/09/03 11:50:26;;;;;;;5.78;5.28;;;;;;;;;;4902010;29;20206;-83
2021/09/03 11:52:57;;;;;;;4.88;4.47;;;;;;;;;;4902478;29;20223;-82
2021/09/03 11:55:25;;;;;;;5.60;5.07;;;;;;;;;;4902185;29;20729;-83
2021/09/03 11:57:59;;;;;;;5.80;5.30;;;;;;;;;;4902374;29;20192;-83
2021/09/03 12:00:28;;;;;;;5.40;4.90;;;;;;;;;;4891288;29;20199;-85
2021/09/03 12:02:58;;;;;;;6.40;5.90;;;;;;;;;;4910444;29;20209;-85
2021/09/03 12:05:26;;;;;;;4.43;3.92;;;;;;;;;;4913449;29;20303;-84
2021/09/03 12:08:35;;;;;;;5.82;5.22;;;;;;;;;;4902345;29;20271;-82
2021/09/03 12:11:37;;;;;;;6.22;5.70;;;;;;;;;;4889909;29;20235;-83
2021/09/03 12:14:04;;;;;;;4.88;4.47;;;;;;;;;;4884453;29;20218;-83
2021/09/03 12:16:37;;;;;;;4.90;4.40;;;;;;;;;;4882795;29;20233;-83
2021/09/03 12:19:06;;;;;;;4.63;3.92;;;;;;;;;;4883613;29;20231;-86
2021/09/03 12:21:37;;;;;;;3.75;3.45;;;;;;;;;;4899753;29;20704;-85
2021/09/03 12:24:08;;;;;;;3.65;3.35;;;;;;;;;;4902842;29;20188;-85
2021/09/03 12:26:39;;;;;;;4.32;4.03;;;;;;;;;;4902557;29;20231;-85
2021/09/03 12:29:10;;;;;;;3.55;3.25;;;;;;;;;;4902824;29;20195;-85
2021/09/03 12:31:39;;;;;;;3.55;3.25;;;;;;;;;;4902255;29;20203;-85
2021/09/03 12:34:11;;;;;;;3.58;3.30;;;;;;;;;;4901681;29;20246;-84
2021/09/03 12:36:42;;;;;;;4.63;4.22;;;;;;;;;;4903515;29;20226;-85
2021/09/03 12:39:11;;;;;;;3.78;3.55;;;;;;;;;;4906637;29;20197;-85
2021/09/03 12:41:41;;;;;;;4.10;3.80;;;;;;;;;;4921085;29;20603;-85
2021/09/03 12:44:12;;;;;;;5.03;4.47;;;;;;;;;;4921470;29;20186;-84
2021/09/03 12:46:41;;;;;;;5.03;4.55;;;;;;;;;;4906830;29;20215;-86
2021/09/03 12:49:26;;;;;;;4.15;3.85;;;;;;;;;;4913408;29;20205;-83
2021/09/03 12:52:01;;;;;;;3.50;3.28;;;;;;;;;;4882859;29;20822;-83
2021/09/03 12:54:38;;;;;;;3.55;3.30;;;;;;;;;;5113346;27;20631;-84
2021/09/03 12:57:06;;;;;;;3.70;3.40;;;;;;;;;;5113144;28;20227;-84
2021/09/03 12:59:34;;;;;;;4.50;4.18;;;;;;;;;;5114645;28;20687;-83
2021/09/03 13:02:06;;;;;;;4.03;3.72;;;;;;;;;;5110303;28;20596;-84
2021/09/03 13:04:39;;;;;;;5.10;4.60;;;;;;;;;;5113137;28;20198;-84
2021/09/03 13:07:17;;;;;;;5.13;4.63;;;;;;;;;;5113839;28;20219;-84
2021/09/03 13:09:46;;;;;;;3.33;3.10;;;;;;;;;;5114190;28;20203;-85
2021/09/03 13:12:14;;;;;;;3.30;3.00;;;;;;;;;;5114033;28;20732;-85
2021/09/03 13:14:42;;;;;;;3.10;2.90;;;;;;;;;;5113515;28;20596;-85
2021/09/03 13:17:12;;;;;;;3.15;2.95;;;;;;;;;;5113503;28;20247;-85
2021/09/03 13:19:44;;;;;;;3.38;3.08;;;;;;;;;;5113189;28;20258;-84
2021/09/03 13:22:13;;;;;;;4.10;3.80;;;;;;;;;;5113035;28;20234;-85
2021/09/03 13:24:45;;;;;;;4.25;3.85;;;;;;;;;;5111961;28;20614;-85
2021/09/03 13:27:16;;;;;;;3.97;3.67;;;;;;;;;;5112836;28;20247;-85
2021/09/03 13:29:44;;;;;;;3.20;2.85;;;;;;;;;;5092439;28;20196;-85
2021/09/03 13:32:16;;;;;;;3.70;3.40;;;;;;;;;;5092423;28;20593;-84
2021/09/03 13:34:43;;;;;;;3.15;2.95;;;;;;;;;;5092399;28;20291;-85
2021/09/03 13:37:11;;;;;;;3.88;3.58;;;;;;;;;;5097257;28;20682;-84
2021/09/03 13:39:38;;;;;;;4.63;4.22;;;;;;;;;;5112314;28;20180;-84
2021/09/03 13:42:07;;;;;;;3.00;2.80;;;;;;;;;;5092458;28;20200;-85
2021/09/03 13:44:36;;;;;;;3.88;3.58;;;;;;;;;;5093169;28;20205;-85
2021/09/03 13:47:04;;;;;;;3.15;2.88;;;;;;;;;;5092124;28;20223;-85
2021/09/03 13:49:31;;;;;;;5.38;3.13;;;;;;;;;;5098963;28;20224;-85
2021/09/03 13:52:02;;;;;;;3.63;3.30;;;;;;;;;;5100194;28;20197;-84
2021/09/03 13:54:29;;;;;;;2.55;2.38;;;;;;;;;;5097657;28;20294;-84
2021/09/03 13:56:57;;;;;;;3.47;3.08;;;;;;;;;;5092711;28;20307;-85
2021/09/03 13:59:26;;;;;;;3.88;3.58;;;;;;;;;;5092520;28;20185;-84
2021/09/03 14:01:54;;;;;;;3.75;3.45;;;;;;;;;;5093576;28;20184;-82
2021/09/03 14:04:21;;;;;;;3.45;3.15;;;;;;;;;;5087657;28;20185;-83
2021/09/03 14:06:52;;;;;;;2.97;2.78;;;;;;;;;;5078449;28;20256;-83
2021/09/03 14:09:25;;;;;;;2.45;2.30;;;;;;;;;;5076974;28;20205;-84
2021/09/03 14:12:17;;;;;;;2.10;2.00;;;;;;;;;;5093460;28;20180;-84
2021/09/03 14:14:51;;;;;;;3.92;3.63;;;;;;;;;;5097907;28;20728;-83
2021/09/03 14:17:42;;;;;;;4.63;4.22;;;;;;;;;;5097382;28;20271;-84
2021/09/03 14:20:22;;;;;;;3.28;3.03;;;;;;;;;;5096078;28;20395;-84
2021/09/03 14:23:03;;;;;;;3.38;3.08;;;;;;;;;;5075684;28;20201;-84
2021/09/03 14:25:35;;;;;;;2.72;2.53;;;;;;;;;;5076224;28;20235;-83
2021/09/03 14:28:05;;;;;;;2.38;2.17;;;;;;;;;;5077402;28;20189;-83
2021/09/03 14:30:33;;;;;;;2.67;2.47;;;;;;;;;;5080026;28;20196;-83
2021/09/03 14:33:01;;;;;;;3.30;3.00;;;;;;;;;;5097453;28;20200;-82
2021/09/03 14:35:28;;;;;;;3.30;3.10;;;;;;;;;;5097621;28;20284;-84
2021/09/03 14:37:56;;;;;;;3.05;2.85;;;;;;;;;;5098011;28;20185;-85
2021/09/03 14:40:23;;;;;;;3.75;2.88;;;;;;;;;;5095172;28;20196;-84
2021/09/03 14:42:54;;;;;;;4.07;2.97;;;;;;;;;;5076677;28;20207;-85
2021/09/03 14:45:22;;;;;;;2.95;2.75;;;;;;;;;;5076713;28;20930;-84
2021/09/03 14:47:51;;;;;;;2.90;2.70;;;;;;;;;;5081313;28;20188;-83
2021/09/03 14:50:19;;;;;;;3.20;3.00;;;;;;;;;;5078512;28;20281;-84
2021/09/03 14:52:46;;;;;;;2.92;2.72;;;;;;;;;;5076603;28;20733;-84
2021/09/03 14:55:14;;;;;;;3.58;3.28;;;;;;;;;;5079847;28;20230;-85
2021/09/03 14:57:41;;;;;;;3.20;3.00;;;;;;;;;;5080919;28;20194;-84
2021/09/03 15:00:10;;;;;;;3.00;2.80;;;;;;;;;;5075525;28;20185;-84
2021/09/03 15:02:38;;;;;;;4.80;3.17;;;;;;;;;;5075313;28;20635;-84
2021/09/03 15:05:07;;;;;;;2.70;2.50;;;;;;;;;;5075170;28;20614;-84
2021/09/03 15:07:36;;;;;;;2.90;2.70;;;;;;;;;;5074554;28;20583;-84
2021/09/03 15:10:05;;;;;;;6.78;3.45;;;;;;;;;;5075492;28;20188;-84
2021/09/03 15:12:34;;;;;;;3.22;3.03;;;;;;;;;;5079542;28;20193;-82
2021/09/03 15:15:01;;;;;;;3.20;3.00;;;;;;;;;;5076687;28;20675;-84
2021/09/03 15:17:29;;;;;;;2.58;2.40;;;;;;;;;;5076062;28;20276;-84
2021/09/03 15:19:56;;;;;;;2.80;2.60;;;;;;;;;;5076506;28;20651;-83
2021/09/03 15:22:25;;;;;;;2.83;2.63;;;;;;;;;;5076599;28;20294;-83
2021/09/03 15:24:53;;;;;;;3.38;3.08;;;;;;;;;;5076559;28;20186;-83
2021/09/03 15:27:20;;;;;;;2.55;2.35;;;;;;;;;;5076328;28;20228;-83
2021/09/03 15:29:47;;;;;;;2.40;2.25;;;;;;;;;;5080891;28;20197;-83
2021/09/03 15:32:17;;;;;;;3.22;3.00;;;;;;;;;;5087240;28;20200;-83